createdAt,value
2023-03-22T00:01:19.548Z,98300.94
2023-03-22T00:03:53.108Z,98301.59
2023-03-22T00:06:27.084Z,98309.56
2023-03-22T00:08:59.412Z,98306.25
2023-03-22T00:11:31.709Z,98307.63
2023-03-22T00:14:03.607Z,98299.69
2023-03-22T00:16:36.768Z,98293.72
2023-03-22T00:19:09.469Z,98287.75
2023-03-22T00:21:41.344Z,98278.47
2023-03-22T00:24:16.820Z,98275.88
2023-03-22T00:26:48.775Z,98275.25
2023-03-22T00:29:44.227Z,98279.19
2023-03-22T00:32:16.101Z,98272.59
2023-03-22T00:34:48.922Z,98270.69
2023-03-22T00:37:21.236Z,98272.00
2023-03-22T00:39:53.521Z,98270.06
2023-03-22T00:42:27.232Z,98260.16
2023-03-22T00:44:59.534Z,98260.94
2023-03-22T00:47:33.356Z,98257.06
2023-03-22T00:50:08.245Z,98266.31
2023-03-22T00:52:40.398Z,98266.28
2023-03-22T00:55:13.150Z,98269.50
2023-03-22T00:57:45.060Z,98268.09
2023-03-22T01:00:19.048Z,98257.53
2023-03-22T01:02:53.722Z,98266.06
2023-03-22T01:05:28.782Z,98254.09
2023-03-22T01:08:08.619Z,98250.09
2023-03-22T01:10:43.042Z,98254.03
2023-03-22T01:13:18.028Z,98244.25
2023-03-22T01:15:51.663Z,98244.25
2023-03-22T01:18:24.675Z,98246.91
2023-03-22T01:20:57.029Z,98242.94
2023-03-22T01:23:30.266Z,98231.00
2023-03-22T01:26:02.613Z,98236.81
2023-03-22T01:28:35.620Z,98243.44
2023-03-22T01:31:08.033Z,98234.06
2023-03-22T01:33:41.484Z,98232.88
2023-03-22T01:36:14.344Z,98236.00
2023-03-22T01:38:47.568Z,98232.59
2023-03-22T01:41:20.108Z,98229.91
2023-03-22T01:44:22.351Z,98221.97
2023-03-22T01:46:56.123Z,98225.88
2023-03-22T01:49:33.958Z,98230.41
2023-03-22T01:52:12.550Z,98231.63
2023-03-22T01:55:00.266Z,98230.31
2023-03-22T01:57:45.389Z,98232.28
2023-03-22T02:00:26.133Z,98229.75
2023-03-22T02:03:49.513Z,98218.38
2023-03-22T02:06:22.629Z,98221.16
2023-03-22T02:09:01.080Z,98221.88
2023-03-22T02:12:06.443Z,98219.09
2023-03-22T02:14:58.070Z,98226.78
2023-03-22T02:18:18.928Z,98233.28
2023-03-22T02:21:29.267Z,98227.41
2023-03-22T02:24:59.310Z,98228.69
2023-03-22T02:28:10.160Z,98218.13
2023-03-22T02:35:21.557Z,98206.31
2023-03-22T02:38:15.572Z,98197.13
2023-03-22T02:41:09.856Z,98191.31
2023-03-22T02:44:04.479Z,98187.97
2023-03-22T02:47:05.288Z,98182.00
2023-03-22T02:49:56.009Z,98181.91
2023-03-22T02:52:53.224Z,98186.41
2023-03-22T02:55:48.908Z,98184.38
2023-03-22T02:58:39.765Z,98179.13
2023-03-22T03:01:40.047Z,98187.91
2023-03-22T03:04:27.187Z,98186.72
2023-03-22T03:07:09.367Z,98196.53
2023-03-22T03:09:44.505Z,98187.31
2023-03-22T03:12:24.303Z,98183.41
2023-03-22T03:14:59.285Z,98179.38
2023-03-22T03:18:27.432Z,98186.59
2023-03-22T03:21:19.526Z,98180.03
2023-03-22T03:24:29.268Z,98189.97
2023-03-22T03:27:10.668Z,98183.56
2023-03-22T03:29:59.928Z,98192.78
2023-03-22T03:32:56.055Z,98186.84
2023-03-22T03:35:49.683Z,98189.47
2023-03-22T03:38:28.833Z,98190.09
2023-03-22T03:41:09.335Z,98189.38
2023-03-22T03:43:43.805Z,98199.16
2023-03-22T03:46:16.407Z,98201.72
2023-03-22T03:48:52.507Z,98195.16
2023-03-22T03:51:26.570Z,98203.06
2023-03-22T03:53:59.532Z,98191.81
2023-03-22T03:56:31.503Z,98193.75
2023-03-22T03:59:04.663Z,98189.84
2023-03-22T04:01:37.348Z,98195.22
2023-03-22T04:04:27.115Z,98199.09
2023-03-22T04:07:07.178Z,98198.50
2023-03-22T04:09:42.624Z,98191.97
2023-03-22T04:12:28.909Z,98193.28
2023-03-22T04:15:22.718Z,98190.00
2023-03-22T04:17:59.738Z,98187.22
2023-03-22T04:20:35.378Z,98189.13
2023-03-22T04:23:11.006Z,98185.09
2023-03-22T04:25:50.954Z,98187.00
2023-03-22T04:28:33.780Z,98180.34
2023-03-22T04:31:07.350Z,98165.22
2023-03-22T04:34:06.002Z,98170.44
2023-03-22T04:37:02.829Z,98152.13
2023-03-22T04:39:36.937Z,98155.31
2023-03-22T04:42:35.065Z,98159.16
2023-03-22T04:45:20.609Z,98161.03
2023-03-22T04:48:00.690Z,98163.50
2023-03-22T04:50:33.493Z,98168.16
2023-03-22T04:53:10.262Z,98155.75
2023-03-22T04:55:43.121Z,98151.78
2023-03-22T04:58:16.909Z,98153.63
2023-03-22T05:00:49.744Z,98154.31
2023-03-22T05:03:23.011Z,98149.69
2023-03-22T05:05:59.586Z,98149.06
2023-03-22T05:08:40.811Z,98155.56
2023-03-22T05:11:20.313Z,98154.75
2023-03-22T05:14:05.535Z,98153.44
2023-03-22T05:16:40.609Z,98150.28
2023-03-22T05:19:14.356Z,98148.13
2023-03-22T05:21:57.849Z,98152.44
2023-03-22T05:24:41.185Z,98150.34
2023-03-22T05:27:17.816Z,98146.28
2023-03-22T05:29:52.672Z,98154.22
2023-03-22T05:32:30.160Z,98146.44
2023-03-22T05:35:05.533Z,98147.13
2023-03-22T05:37:42.474Z,98153.63
2023-03-22T05:40:15.534Z,98151.69
2023-03-22T05:42:48.752Z,98148.44
2023-03-22T05:45:27.386Z,98153.06
2023-03-22T05:48:11.775Z,98156.66
2023-03-22T05:50:44.706Z,98149.66
2023-03-22T05:53:17.218Z,98153.44
2023-03-22T05:56:01.167Z,98152.75
2023-03-22T05:58:36.861Z,98151.59
2023-03-22T06:01:13.119Z,98154.25
2023-03-22T06:03:50.693Z,98158.13
2023-03-22T06:06:36.434Z,98148.31
2023-03-22T06:09:17.955Z,98158.72
2023-03-22T06:11:55.838Z,98158.66
2023-03-22T06:14:28.476Z,98158.59
2023-03-22T06:17:17.805Z,98157.38
2023-03-22T06:19:52.939Z,98159.41
2023-03-22T06:22:26.878Z,98168.00
2023-03-22T06:24:59.415Z,98169.44
2023-03-22T06:27:40.977Z,98164.34
2023-03-22T06:30:13.486Z,98165.03
2023-03-22T06:33:06.914Z,98165.78
2023-03-22T06:35:43.413Z,98169.88
2023-03-22T06:38:21.062Z,98167.94
2023-03-22T06:40:53.032Z,98170.63
2023-03-22T06:43:26.242Z,98168.03
2023-03-22T06:46:06.221Z,98165.38
2023-03-22T06:48:48.420Z,98166.19
2023-03-22T06:51:21.724Z,98168.19
2023-03-22T06:53:56.540Z,98156.38
2023-03-22T06:56:28.983Z,98166.38
2023-03-22T06:59:01.721Z,98167.06
2023-03-22T07:01:34.433Z,98171.66
2023-03-22T07:04:07.749Z,98170.41
2023-03-22T07:06:40.126Z,98169.78
2023-03-22T07:09:13.158Z,98177.06
2023-03-22T07:11:45.210Z,98175.84
2023-03-22T07:14:18.432Z,98172.72
2023-03-22T07:17:14.262Z,98163.88
2023-03-22T07:19:47.110Z,98161.75
2023-03-22T07:22:22.295Z,98158.13
2023-03-22T07:25:00.588Z,98159.78
2023-03-22T07:27:36.384Z,98175.22
2023-03-22T07:30:11.098Z,98173.34
2023-03-22T07:32:48.155Z,98183.25
2023-03-22T07:35:20.942Z,98174.03
2023-03-22T07:37:55.012Z,98179.97
2023-03-22T07:40:33.996Z,98170.72
2023-03-22T07:43:06.763Z,98168.03
2023-03-22T07:45:59.914Z,98161.28
2023-03-22T07:48:50.727Z,98153.56
2023-03-22T07:51:55.828Z,98156.91
2023-03-22T07:54:33.928Z,98153.34
2023-03-22T07:57:11.305Z,98145.97
2023-03-22T07:59:49.728Z,98152.69
2023-03-22T08:02:23.468Z,98142.63
2023-03-22T08:04:58.492Z,98145.00
2023-03-22T08:07:36.626Z,98146.94
2023-03-22T08:10:09.404Z,98155.56
2023-03-22T08:12:43.219Z,98160.66
2023-03-22T08:15:25.460Z,98148.59
2023-03-22T08:17:59.134Z,98158.66
2023-03-22T08:20:39.429Z,98151.06
2023-03-22T08:23:17.535Z,98159.84
2023-03-22T08:26:01.515Z,98150.56
2023-03-22T08:28:34.385Z,98151.75
2023-03-22T08:31:17.612Z,98144.66
2023-03-22T08:33:52.600Z,98139.41
2023-03-22T08:36:24.699Z,98137.72
2023-03-22T08:39:05.704Z,98143.00
2023-03-22T08:41:48.985Z,98144.44
2023-03-22T08:44:21.847Z,98142.88
2023-03-22T08:46:54.294Z,98144.03
2023-03-22T08:49:27.622Z,98131.59
2023-03-22T08:52:07.390Z,98134.22
2023-03-22T08:55:17.901Z,98132.38
2023-03-22T08:57:52.560Z,98135.25
2023-03-22T09:00:47.773Z,98134.97
2023-03-22T09:03:27.219Z,98131.88
2023-03-22T09:06:00.109Z,98146.16
2023-03-22T09:08:36.168Z,98150.00
2023-03-22T09:11:18.014Z,98150.09
2023-03-22T09:13:52.115Z,98141.56
2023-03-22T09:16:25.913Z,98144.13
2023-03-22T09:18:58.131Z,98140.25
2023-03-22T09:21:31.845Z,98139.34
2023-03-22T09:24:12.891Z,98125.56
2023-03-22T09:26:50.406Z,98124.91
2023-03-22T09:29:24.181Z,98127.19
2023-03-22T09:31:57.128Z,98122.88
2023-03-22T09:34:34.499Z,98118.09
2023-03-22T09:37:08.160Z,98120.69
2023-03-22T09:39:49.337Z,98123.53
2023-03-22T09:42:45.005Z,98119.47
2023-03-22T09:45:30.112Z,98124.69
2023-03-22T09:48:08.568Z,98123.75
2023-03-22T09:50:48.059Z,98117.22
2023-03-22T09:53:24.869Z,98107.97
2023-03-22T09:56:33.236Z,98098.38
2023-03-22T09:59:36.510Z,98100.47
2023-03-22T10:02:41.144Z,98098.09
2023-03-22T10:05:29.565Z,98097.78
2023-03-22T10:08:49.731Z,98087.81
2023-03-22T10:11:37.317Z,98087.41
2023-03-22T10:14:23.454Z,98084.88
2023-03-22T10:16:59.637Z,98096.00
2023-03-22T10:19:49.698Z,98083.88
2023-03-22T10:22:30.210Z,98095.19
2023-03-22T10:25:06.089Z,98079.94
2023-03-22T10:27:38.937Z,98079.00
2023-03-22T10:30:21.289Z,98081.22
2023-03-22T10:33:16.954Z,98069.94
2023-03-22T10:35:49.907Z,98085.13
2023-03-22T10:38:27.740Z,98080.63
2023-03-22T10:41:02.238Z,98078.13
2023-03-22T10:43:59.434Z,98078.25
2023-03-22T10:46:39.657Z,98081.47
2023-03-22T10:49:33.269Z,98094.16
2023-03-22T10:52:39.602Z,98100.44
2023-03-22T10:55:44.577Z,98087.75
2023-03-22T10:58:20.428Z,98086.69
2023-03-22T11:00:57.900Z,98085.06
2023-03-22T11:03:39.135Z,98087.16
2023-03-22T11:06:37.592Z,98089.44
2023-03-22T11:09:17.369Z,98091.53
2023-03-22T11:15:33.367Z,98090.97
2023-03-22T11:18:17.927Z,98082.81
2023-03-22T11:21:07.675Z,98085.88
2023-03-22T11:23:51.093Z,98070.72
2023-03-22T11:26:35.885Z,98082.94
2023-03-22T11:29:19.662Z,98084.63
2023-03-22T11:32:00.000Z,98080.19
2023-03-22T11:34:33.813Z,98064.72
2023-03-22T11:37:08.515Z,98061.41
2023-03-22T11:39:49.931Z,98051.72
2023-03-22T11:42:24.621Z,98061.31
2023-03-22T11:44:57.626Z,98066.41
2023-03-22T11:47:38.513Z,98060.94
2023-03-22T11:50:32.359Z,98052.50
2023-03-22T11:53:19.590Z,98041.88
2023-03-22T11:55:54.706Z,98041.16
2023-03-22T11:59:05.163Z,98048.91
2023-03-22T12:01:46.791Z,98046.78
2023-03-22T12:04:29.589Z,98039.94
2023-03-22T12:07:07.005Z,98043.50
2023-03-22T12:09:54.053Z,98025.94
2023-03-22T12:12:39.273Z,98025.91
2023-03-22T12:15:30.368Z,98031.97
2023-03-22T12:18:10.080Z,98025.00
2023-03-22T12:20:44.074Z,98028.00
2023-03-22T12:23:23.143Z,98016.94
2023-03-22T12:29:15.765Z,98017.47
2023-03-22T12:32:04.353Z,98022.44
2023-03-22T12:34:42.107Z,98012.38
2023-03-22T12:37:37.860Z,98005.09
2023-03-22T12:40:39.886Z,98005.34
2023-03-22T12:46:43.067Z,98005.69
2023-03-22T12:49:36.930Z,97997.34
2023-03-22T12:52:22.513Z,98000.13
2023-03-22T12:54:56.657Z,97996.63
2023-03-22T12:57:29.806Z,97993.31
2023-03-22T13:00:13.590Z,97998.84
2023-03-22T13:06:09.575Z,97981.22
2023-03-22T13:09:18.166Z,97987.06
2023-03-22T13:12:16.164Z,97980.50
2023-03-22T13:14:52.083Z,97975.78
2023-03-22T13:17:23.941Z,97977.47
2023-03-22T13:20:12.698Z,97963.06
2023-03-22T13:22:47.924Z,97968.88
2023-03-22T13:25:20.868Z,97961.78
2023-03-22T13:28:06.639Z,97963.72
2023-03-22T13:30:54.054Z,97961.31
2023-03-22T13:33:29.448Z,97966.44
2023-03-22T13:36:26.667Z,97952.97
2023-03-22T13:39:04.929Z,97954.41
2023-03-22T13:41:38.699Z,97960.97
2023-03-22T13:44:37.787Z,97958.69
2023-03-22T13:47:44.013Z,97953.81
2023-03-22T13:50:23.840Z,97958.16
2023-03-22T13:53:21.529Z,97954.56
2023-03-22T13:55:54.942Z,97934.00
2023-03-22T13:58:46.711Z,97937.88
2023-03-22T14:01:38.708Z,97927.47
2023-03-22T14:04:22.436Z,97922.41
2023-03-22T14:07:05.307Z,97922.03
2023-03-22T14:09:49.668Z,97927.28
2023-03-22T14:12:49.420Z,97914.38
2023-03-22T14:15:31.627Z,97907.41
2023-03-22T14:18:32.430Z,97908.13
2023-03-22T14:21:09.989Z,97902.31
